Time;durP1;ratioP1;P1;durP2;ratioP2;P2;SDS_P1;SDS_P2;PMS_P1;PMS_P2;Temp;Humidity;BMP_temperature;BMP_pressure;BME280_temperature;BME280_humidity;BME280_pressure;Samples;Min_cycle;Max_cycle;Signal;HPM_P1;HPM_P2
2022/09/16 00:02:41;;;;;;;2.15;1.25;;;;;;;;;;4898978;29;20045;-76
2022/09/16 00:07:55;;;;;;;2.22;1.70;;;;;;;;;;5128351;23;20068;-77
2022/09/16 00:10:26;;;;;;;2.80;1.80;;;;;;;;;;4865661;29;20049;-77
2022/09/16 00:18:26;;;;;;;4.05;2.00;;;;;;;;;;4882962;29;20044;-77
2022/09/16 00:28:59;;;;;;;3.88;2.10;;;;;;;;;;4249955;23;20037;-77
2022/09/16 00:31:40;;;;;;;3.78;2.50;;;;;;;;;;5274618;23;20061;-77
2022/09/16 00:34:28;;;;;;;6.18;2.45;;;;;;;;;;5550340;23;20058;-77
2022/09/16 00:42:42;;;;;;;4.57;2.40;;;;;;;;;;984051;27;20313;-76
2022/09/16 00:45:30;;;;;;;4.57;2.28;;;;;;;;;;4868489;29;20033;-77
2022/09/16 00:48:25;;;;;;;4.13;2.20;;;;;;;;;;4878184;29;20033;-77
2022/09/16 00:53:39;;;;;;;5.65;2.92;;;;;;;;;;5034770;23;20078;-77
2022/09/16 01:01:44;;;;;;;6.18;2.30;;;;;;;;;;5716850;23;20063;-79
2022/09/16 01:07:44;;;;;;;5.97;2.43;;;;;;;;;;5189693;23;20038;-78
2022/09/16 01:10:18;;;;;;;3.90;1.70;;;;;;;;;;4880819;29;20067;-78
2022/09/16 01:12:46;;;;;;;3.30;1.90;;;;;;;;;;4883974;29;20037;-78
2022/09/16 01:15:36;;;;;;;2.03;1.70;;;;;;;;;;4882971;29;20091;-78
2022/09/16 01:18:41;;;;;;;2.08;1.80;;;;;;;;;;4845153;29;20121;-78
2022/09/16 01:21:25;;;;;;;2.95;1.70;;;;;;;;;;4829041;29;20019;-76
2022/09/16 01:24:30;;;;;;;4.65;1.80;;;;;;;;;;4935656;23;20036;-80
2022/09/16 01:27:33;;;;;;;2.67;1.90;;;;;;;;;;4800438;29;20066;-78
2022/09/16 01:30:20;;;;;;;3.38;2.00;;;;;;;;;;4846162;29;20042;-77
2022/09/16 01:35:38;;;;;;;4.18;2.10;;;;;;;;;;5736019;23;20051;-79
2022/09/16 01:38:27;;;;;;;5.22;2.38;;;;;;;;;;4861757;29;20033;-79
2022/09/16 01:41:29;;;;;;;2.35;1.90;;;;;;;;;;4819535;29;20449;-79
2022/09/16 01:44:02;;;;;;;3.13;1.88;;;;;;;;;;4802277;29;20035;-78
2022/09/16 01:46:44;;;;;;;4.45;2.33;;;;;;;;;;4802538;29;20043;-78
2022/09/16 01:49:21;;;;;;;4.38;1.65;;;;;;;;;;4802162;29;20039;-75
2022/09/16 01:52:03;;;;;;;3.55;1.70;;;;;;;;;;4816328;29;20151;-77
2022/09/16 01:54:34;;;;;;;3.33;1.58;;;;;;;;;;4835176;29;20041;-78
2022/09/16 01:57:10;;;;;;;2.67;1.60;;;;;;;;;;4829268;29;20076;-78
2022/09/16 02:00:02;;;;;;;2.55;1.98;;;;;;;;;;4800383;29;20089;-77
2022/09/16 02:02:33;;;;;;;2.83;1.75;;;;;;;;;;4814552;29;20035;-77
2022/09/16 02:05:01;;;;;;;3.25;1.50;;;;;;;;;;4814222;29;20050;-77
2022/09/16 02:07:32;;;;;;;2.92;1.70;;;;;;;;;;4814260;29;20027;-78
2022/09/16 02:10:00;;;;;;;1.95;1.75;;;;;;;;;;4797496;29;20078;-76
2022/09/16 02:12:29;;;;;;;3.60;1.90;;;;;;;;;;4810143;29;20071;-77
2022/09/16 02:15:00;;;;;;;2.30;1.45;;;;;;;;;;4813741;29;20050;-79
2022/09/16 02:17:30;;;;;;;2.85;1.80;;;;;;;;;;4820852;29;20050;-79
2022/09/16 02:20:08;;;;;;;2.80;2.05;;;;;;;;;;4870589;29;20049;-77
2022/09/16 02:22:44;;;;;;;1.75;1.60;;;;;;;;;;4874659;29;20041;-77
2022/09/16 02:25:10;;;;;;;1.70;1.58;;;;;;;;;;4859134;29;20053;-76
2022/09/16 02:27:39;;;;;;;5.57;1.83;;;;;;;;;;4874276;29;20081;-78
2022/09/16 02:30:09;;;;;;;4.65;1.85;;;;;;;;;;4876985;29;20025;-79
2022/09/16 02:33:05;;;;;;;2.53;1.60;;;;;;;;;;4867863;29;20045;-77
2022/09/16 02:35:33;;;;;;;4.50;1.73;;;;;;;;;;4771842;29;2412584;-79
2022/09/16 02:38:30;;;;;;;4.10;1.80;;;;;;;;;;4869026;29;20053;-78
2022/09/16 02:41:00;;;;;;;3.38;1.80;;;;;;;;;;4807066;29;20035;-78
2022/09/16 02:43:27;;;;;;;2.72;1.55;;;;;;;;;;4805763;29;20487;-79
2022/09/16 02:46:12;;;;;;;1.83;1.73;;;;;;;;;;4806456;29;20042;-78
2022/09/16 02:49:16;;;;;;;4.63;1.50;;;;;;;;;;4806410;29;20053;-78
2022/09/16 02:51:42;;;;;;;;;;;;;;;;;;4822603;29;20050;-78
2022/09/16 02:54:21;;;;;;;2.28;1.45;;;;;;;;;;4823295;29;20007;-78
2022/09/16 02:56:49;;;;;;;2.28;1.50;;;;;;;;;;4822195;29;20042;-78
2022/09/16 02:59:16;;;;;;;1.70;1.60;;;;;;;;;;4805603;29;20054;-77
2022/09/16 03:01:46;;;;;;;3.22;1.85;;;;;;;;;;4821275;29;20500;-77
2022/09/16 03:04:17;;;;;;;1.70;1.60;;;;;;;;;;4819015;29;20043;-77
2022/09/16 03:06:48;;;;;;;5.57;2.25;;;;;;;;;;4818702;29;20062;-77
2022/09/16 03:09:17;;;;;;;2.10;1.45;;;;;;;;;;4822485;29;20051;-78
2022/09/16 03:12:02;;;;;;;2.05;1.63;;;;;;;;;;4820757;29;20031;-78
2022/09/16 03:14:37;;;;;;;3.75;1.65;;;;;;;;;;4821046;29;20043;-77
2022/09/16 03:17:41;;;;;;;2.08;1.45;;;;;;;;;;4849343;29;20045;-77
2022/09/16 03:20:20;;;;;;;5.53;1.98;;;;;;;;;;4798280;29;20047;-78
2022/09/16 03:23:07;;;;;;;5.50;1.88;;;;;;;;;;4793346;30;20039;-81
2022/09/16 03:25:58;;;;;;;3.15;1.63;;;;;;;;;;4808757;29;20103;-78
2022/09/16 03:28:26;;;;;;;3.97;1.70;;;;;;;;;;4807674;30;20026;-79
2022/09/16 03:30:56;;;;;;;2.80;1.60;;;;;;;;;;4790350;30;20054;-78
2022/09/16 03:33:25;;;;;;;3.45;1.45;;;;;;;;;;4793953;30;20538;-78
2022/09/16 03:35:52;;;;;;;2.17;1.75;;;;;;;;;;4808253;30;20043;-78
2022/09/16 03:38:22;;;;;;;4.57;1.88;;;;;;;;;;4806743;29;20073;-77
2022/09/16 03:40:56;;;;;;;4.32;1.90;;;;;;;;;;4807145;30;20020;-78
2022/09/16 03:43:25;;;;;;;4.78;1.90;;;;;;;;;;4808537;29;20047;-78
2022/09/16 03:45:52;;;;;;;3.75;1.80;;;;;;;;;;4809628;30;20031;-78
2022/09/16 03:48:18;;;;;;;3.65;2.22;;;;;;;;;;4793117;30;20052;-77
2022/09/16 03:50:45;;;;;;;2.13;1.90;;;;;;;;;;4804839;30;20098;-79
2022/09/16 03:53:17;;;;;;;9.57;2.55;;;;;;;;;;4800583;29;20059;-79
2022/09/16 03:55:45;;;;;;;5.80;2.05;;;;;;;;;;4848305;29;20484;-77
2022/09/16 03:58:11;;;;;;;5.13;1.92;;;;;;;;;;4871365;29;20029;-76
2022/09/16 04:00:55;;;;;;;6.07;2.10;;;;;;;;;;4856093;29;20041;-78
2022/09/16 04:03:21;;;;;;;3.30;1.77;;;;;;;;;;4857782;29;20030;-78
2022/09/16 04:05:56;;;;;;;4.32;2.05;;;;;;;;;;4856189;29;20476;-77
2022/09/16 04:08:38;;;;;;;3.60;2.15;;;;;;;;;;4870369;29;20029;-77
2022/09/16 04:11:10;;;;;;;2.40;2.10;;;;;;;;;;4875142;29;20085;-77
2022/09/16 04:13:45;;;;;;;4.05;2.30;;;;;;;;;;4863104;29;20044;-79
2022/09/16 04:16:12;;;;;;;6.10;2.47;;;;;;;;;;4856808;29;20431;-78
2022/09/16 04:18:39;;;;;;;6.40;2.35;;;;;;;;;;4838395;29;20042;-77
2022/09/16 04:21:06;;;;;;;4.45;2.15;;;;;;;;;;4846025;29;20033;-76
2022/09/16 04:23:33;;;;;;;6.25;2.20;;;;;;;;;;4874531;29;20056;-77
2022/09/16 04:26:00;;;;;;;4.30;2.03;;;;;;;;;;4857031;29;20404;-78
2022/09/16 04:28:27;;;;;;;5.45;2.00;;;;;;;;;;4872861;29;20033;-80
2022/09/16 04:30:53;;;;;;;3.80;2.10;;;;;;;;;;4860947;29;20033;-78
2022/09/16 04:33:30;;;;;;;4.30;2.25;;;;;;;;;;4875944;29;20396;-78
2022/09/16 04:36:24;;;;;;;6.70;2.83;;;;;;;;;;4882572;29;20050;-78
2022/09/16 04:38:52;;;;;;;4.07;2.08;;;;;;;;;;4858443;29;20046;-79
2022/09/16 04:41:25;;;;;;;4.15;2.15;;;;;;;;;;4877212;29;20036;-78
2022/09/16 04:44:12;;;;;;;5.00;2.00;;;;;;;;;;4872119;29;20026;-76
2022/09/16 04:46:39;;;;;;;5.00;2.17;;;;;;;;;;4869132;29;20038;-77
2022/09/16 04:49:05;;;;;;;4.28;2.05;;;;;;;;;;4858166;29;20112;-79
2022/09/16 04:51:34;;;;;;;8.07;2.47;;;;;;;;;;4870551;29;20038;-77
2022/09/16 04:54:00;;;;;;;4.18;2.33;;;;;;;;;;4860185;29;20034;-79
2022/09/16 04:56:30;;;;;;;5.70;2.35;;;;;;;;;;4860173;29;20029;-78
2022/09/16 04:58:59;;;;;;;5.57;2.30;;;;;;;;;;4875936;29;20033;-78
2022/09/16 05:01:30;;;;;;;8.07;2.75;;;;;;;;;;4877794;29;20054;-78
2022/09/16 05:04:04;;;;;;;8.68;2.70;;;;;;;;;;4875091;29;20049;-79
2022/09/16 05:06:43;;;;;;;7.82;2.53;;;;;;;;;;4878245;29;20033;-78
2022/09/16 05:09:13;;;;;;;5.20;2.10;;;;;;;;;;4873175;29;20038;-77
2022/09/16 05:11:41;;;;;;;6.53;2.28;;;;;;;;;;4872492;29;20044;-77
2022/09/16 05:14:13;;;;;;;4.25;2.35;;;;;;;;;;4858723;29;20050;-76
2022/09/16 05:17:00;;;;;;;4.60;2.25;;;;;;;;;;4858090;29;20042;-77
2022/09/16 05:19:26;;;;;;;4.30;2.35;;;;;;;;;;4855812;29;20037;-79
2022/09/16 05:21:57;;;;;;;6.50;2.50;;;;;;;;;;4872985;29;20041;-78
2022/09/16 05:24:30;;;;;;;7.43;2.53;;;;;;;;;;4846481;29;20075;-78
2022/09/16 05:27:04;;;;;;;4.53;2.33;;;;;;;;;;4850670;29;20041;-78
2022/09/16 05:29:31;;;;;;;4.55;2.05;;;;;;;;;;4860826;29;20013;-77
2022/09/16 05:31:57;;;;;;;5.03;2.00;;;;;;;;;;4861427;29;20042;-79
2022/09/16 05:34:27;;;;;;;5.88;2.50;;;;;;;;;;4861841;29;20101;-79
2022/09/16 05:36:55;;;;;;;4.13;2.22;;;;;;;;;;4869034;29;20038;-78
2022/09/16 05:39:22;;;;;;;6.38;2.60;;;;;;;;;;4875988;29;20057;-75
2022/09/16 05:45:23;;;;;;;7.03;3.10;;;;;;;;;;4828152;29;20038;-78
2022/09/16 05:50:52;;;;;;;6.72;2.67;;;;;;;;;;5060173;23;20058;-75
2022/09/16 05:56:39;;;;;;;8.48;2.78;;;;;;;;;;4868231;29;20037;-79
2022/09/16 05:59:05;;;;;;;6.15;2.42;;;;;;;;;;4854813;29;20018;-79
2022/09/16 06:01:32;;;;;;;4.88;2.72;;;;;;;;;;4859996;29;20037;-74
2022/09/16 06:04:01;;;;;;;5.55;2.40;;;;;;;;;;4853320;29;20489;-75
2022/09/16 06:06:34;;;;;;;9.73;2.80;;;;;;;;;;4860795;29;20033;-79
2022/09/16 06:09:01;;;;;;;;;;;;;;;;;;4827527;29;20043;-79
2022/09/16 06:11:36;;;;;;;4.93;3.00;;;;;;;;;;4821856;29;19913;-79
2022/09/16 06:14:04;;;;;;;6.43;3.38;;;;;;;;;;4841033;29;20042;-79
2022/09/16 06:16:31;;;;;;;5.80;2.65;;;;;;;;;;4827548;29;20094;-77
2022/09/16 06:18:58;;;;;;;6.63;3.00;;;;;;;;;;4827621;29;20029;-78
2022/09/16 06:21:27;;;;;;;7.95;3.78;;;;;;;;;;4829195;29;20038;-78
2022/09/16 06:23:53;;;;;;;5.60;3.20;;;;;;;;;;4843149;29;20030;-78
2022/09/16 06:26:24;;;;;;;5.63;3.38;;;;;;;;;;4843927;29;20026;-79
2022/09/16 06:28:52;;;;;;;7.25;3.75;;;;;;;;;;4827059;29;20031;-78
2022/09/16 06:31:23;;;;;;;6.70;4.13;;;;;;;;;;4835693;29;20051;-79
2022/09/16 06:34:32;;;;;;;6.40;3.53;;;;;;;;;;4846509;29;20033;-79
2022/09/16 06:37:18;;;;;;;5.38;3.40;;;;;;;;;;4785265;30;20721;-78
2022/09/16 06:39:47;;;;;;;7.15;3.28;;;;;;;;;;4789740;30;20050;-79
2022/09/16 06:42:40;;;;;;;6.47;3.38;;;;;;;;;;4783374;30;20048;-78
2022/09/16 06:46:01;;;;;;;5.30;3.47;;;;;;;;;;4774006;29;20024;-80
2022/09/16 06:48:28;;;;;;;7.22;3.50;;;;;;;;;;4793050;29;20099;-77
2022/09/16 06:50:59;;;;;;;4.63;3.15;;;;;;;;;;4799642;30;20056;-77
2022/09/16 06:53:29;;;;;;;5.72;3.38;;;;;;;;;;4799175;29;20809;-79
2022/09/16 06:56:05;;;;;;;5.68;3.92;;;;;;;;;;4806076;29;20092;-77
2022/09/16 06:58:41;;;;;;;5.85;4.03;;;;;;;;;;4802425;30;20618;-76
2022/09/16 07:01:17;;;;;;;6.25;4.10;;;;;;;;;;4813998;29;20070;-79
2022/09/16 07:03:48;;;;;;;5.93;3.88;;;;;;;;;;4832818;29;20047;-76
2022/09/16 07:06:15;;;;;;;6.85;3.88;;;;;;;;;;4839439;29;20042;-72
2022/09/16 07:08:41;;;;;;;7.38;3.60;;;;;;;;;;4842176;29;20055;-72
2022/09/16 07:11:10;;;;;;;3.58;2.83;;;;;;;;;;4841773;29;20057;-72
2022/09/16 07:13:36;;;;;;;6.93;3.92;;;;;;;;;;4843639;29;20022;-71
2022/09/16 07:16:06;;;;;;;9.77;4.80;;;;;;;;;;4850450;29;20046;-72
2022/09/16 07:18:32;;;;;;;6.55;4.70;;;;;;;;;;4853854;29;20414;-73
2022/09/16 07:21:18;;;;;;;11.15;5.68;;;;;;;;;;4843599;29;20034;-76
2022/09/16 07:23:44;;;;;;;6.35;4.43;;;;;;;;;;4839786;29;20035;-74
2022/09/16 07:26:28;;;;;;;7.32;4.38;;;;;;;;;;4821676;29;20060;-73
2022/09/16 07:29:13;;;;;;;6.15;3.40;;;;;;;;;;5292243;23;20053;-76
2022/09/16 07:31:47;;;;;;;7.15;4.00;;;;;;;;;;4881990;29;20028;-78
2022/09/16 07:34:43;;;;;;;4.27;2.80;;;;;;;;;;4886052;29;20052;-78
2022/09/16 07:37:34;;;;;;;7.97;2.97;;;;;;;;;;4853639;29;20299;-79
2022/09/16 07:40:15;;;;;;;3.97;2.40;;;;;;;;;;4879574;29;20053;-78
2022/09/16 07:42:43;;;;;;;4.60;2.50;;;;;;;;;;4878630;29;20044;-76
2022/09/16 07:45:09;;;;;;;4.72;2.90;;;;;;;;;;4884390;29;20029;-78
2022/09/16 07:47:44;;;;;;;5.22;2.65;;;;;;;;;;4889851;29;20032;-79
2022/09/16 07:50:16;;;;;;;5.22;3.40;;;;;;;;;;4888919;29;20045;-78
2022/09/16 07:52:45;;;;;;;8.48;3.40;;;;;;;;;;4865769;29;20091;-77
2022/09/16 07:55:15;;;;;;;6.65;3.75;;;;;;;;;;4866774;29;20030;-75
2022/09/16 07:58:03;;;;;;;5.65;3.10;;;;;;;;;;4895058;29;20009;-80
2022/09/16 08:13:58;;;;;;;5.47;2.60;;;;;;;;;;5286604;23;20424;-75
2022/09/16 08:16:24;;;;;;;4.72;2.60;;;;;;;;;;4847194;29;20018;-77
2022/09/16 09:11:40;;;;;;;4.80;3.30;;;;;;;;;;4842398;27;20057;-74
2022/09/16 09:14:26;;;;;;;6.28;3.65;;;;;;;;;;4837247;29;20052;-74
2022/09/16 09:17:15;;;;;;;9.95;4.10;;;;;;;;;;4877911;29;20030;-75
2022/09/16 09:20:00;;;;;;;5.88;3.55;;;;;;;;;;4870985;29;20058;-76
2022/09/16 09:22:44;;;;;;;6.43;4.10;;;;;;;;;;4882411;29;20040;-74
2022/09/16 09:25:29;;;;;;;8.95;3.95;;;;;;;;;;4871051;29;20108;-74
2022/09/16 09:28:13;;;;;;;8.20;3.55;;;;;;;;;;4869426;29;20120;-75
2022/09/16 09:30:43;;;;;;;4.28;3.30;;;;;;;;;;4866858;29;20036;-74
2022/09/16 09:33:09;;;;;;;5.57;3.42;;;;;;;;;;4869787;29;20043;-74
2022/09/16 09:35:48;;;;;;;7.93;3.38;;;;;;;;;;4871726;29;20072;-75
2022/09/16 09:38:23;;;;;;;6.35;3.28;;;;;;;;;;4872400;29;20033;-74
2022/09/16 09:41:06;;;;;;;5.00;3.72;;;;;;;;;;4877182;29;20045;-77
2022/09/16 09:43:56;;;;;;;6.68;3.55;;;;;;;;;;4880124;29;20022;-78
2022/09/16 09:46:53;;;;;;;7.13;3.38;;;;;;;;;;4883005;29;20069;-76
2022/09/16 09:49:28;;;;;;;3.53;2.65;;;;;;;;;;5647061;23;20012;-75
2022/09/16 09:52:06;;;;;;;6.10;2.67;;;;;;;;;;5068613;23;20100;-77
2022/09/16 09:58:13;;;;;;;4.57;2.80;;;;;;;;;;5595851;23;20075;-79
2022/09/16 10:00:40;;;;;;;5.03;3.10;;;;;;;;;;4840826;29;20033;-78
2022/09/16 10:03:36;;;;;;;5.78;3.35;;;;;;;;;;4864384;29;20034;-77
2022/09/16 10:06:48;;;;;;;7.57;3.20;;;;;;;;;;4862467;29;20054;-78
2022/09/16 10:09:20;;;;;;;6.85;3.60;;;;;;;;;;4786212;30;20059;-76
2022/09/16 10:11:55;;;;;;;5.30;3.60;;;;;;;;;;4773087;30;20054;-75
2022/09/16 10:14:26;;;;;;;5.65;3.80;;;;;;;;;;4788806;30;20046;-77
2022/09/16 10:16:53;;;;;;;8.00;3.90;;;;;;;;;;4781022;30;20085;-76
2022/09/16 10:19:21;;;;;;;9.90;4.20;;;;;;;;;;4755620;30;20150;-76
2022/09/16 10:21:50;;;;;;;6.45;3.95;;;;;;;;;;4768113;30;20449;-76
2022/09/16 10:24:29;;;;;;;7.68;4.65;;;;;;;;;;4768256;30;20077;-75
2022/09/16 10:26:55;;;;;;;5.00;3.60;;;;;;;;;;4765637;30;20216;-75
2022/09/16 10:29:22;;;;;;;4.10;3.28;;;;;;;;;;4767078;30;20595;-77
2022/09/16 10:31:49;;;;;;;8.57;3.95;;;;;;;;;;4779298;30;20020;-76
2022/09/16 10:34:19;;;;;;;6.93;4.47;;;;;;;;;;4771941;30;20064;-77
2022/09/16 10:36:46;;;;;;;5.45;3.33;;;;;;;;;;4757329;30;20085;-78
2022/09/16 10:39:32;;;;;;;5.93;2.90;;;;;;;;;;4791653;29;20058;-77
2022/09/16 10:42:28;;;;;;;5.05;3.28;;;;;;;;;;4833393;29;20042;-77
2022/09/16 10:45:41;;;;;;;4.50;3.60;;;;;;;;;;4840278;29;20034;-77
2022/09/16 10:48:11;;;;;;;5.85;3.47;;;;;;;;;;4831182;29;20416;-75
2022/09/16 10:51:15;;;;;;;5.35;4.00;;;;;;;;;;4839196;29;20014;-77
2022/09/16 10:53:41;;;;;;;;;;;;;;;;;;4764150;30;20051;-77
2022/09/16 10:56:20;;;;;;;6.28;4.97;;;;;;;;;;4772357;30;19913;-76
2022/09/16 10:58:47;;;;;;;7.80;5.00;;;;;;;;;;4784211;29;20613;-76
2022/09/16 11:01:16;;;;;;;7.95;6.10;;;;;;;;;;4801641;30;20016;-77
2022/09/16 11:10:17;;;;;;;9.57;6.25;;;;;;;;;;4916013;23;20069;-77
2022/09/16 11:15:22;;;;;;;6.88;5.15;;;;;;;;;;5046488;23;20049;-76
2022/09/16 11:18:05;;;;;;;4.50;3.30;;;;;;;;;;4853200;29;20498;-77
2022/09/16 11:20:32;;;;;;;6.20;4.83;;;;;;;;;;4871500;29;20042;-77
2022/09/16 11:23:20;;;;;;;6.03;3.80;;;;;;;;;;4858277;29;20304;-79
2022/09/16 11:26:15;;;;;;;5.32;4.10;;;;;;;;;;4863230;29;20025;-78
2022/09/16 11:28:47;;;;;;;5.88;4.47;;;;;;;;;;4875134;29;20057;-77
2022/09/16 11:31:37;;;;;;;4.72;3.60;;;;;;;;;;4863653;29;20077;-78
2022/09/16 11:34:24;;;;;;;5.05;3.85;;;;;;;;;;4824187;29;20046;-78
2022/09/16 11:37:07;;;;;;;5.15;4.60;;;;;;;;;;4785090;30;20091;-78
2022/09/16 11:39:58;;;;;;;5.10;4.60;;;;;;;;;;4781037;30;20050;-77
2022/09/16 11:42:31;;;;;;;6.80;4.70;;;;;;;;;;4775227;30;20040;-76
2022/09/16 11:45:00;;;;;;;5.63;4.70;;;;;;;;;;4776179;30;20048;-76
2022/09/16 11:47:28;;;;;;;6.45;5.55;;;;;;;;;;4775887;30;20061;-76
2022/09/16 11:49:54;;;;;;;9.35;6.70;;;;;;;;;;4777982;30;20044;-78
2022/09/16 11:52:30;;;;;;;7.18;6.47;;;;;;;;;;4778537;30;20129;-78
2022/09/16 11:55:07;;;;;;;7.03;6.32;;;;;;;;;;4782880;30;20046;-78
2022/09/16 11:57:54;;;;;;;7.00;6.20;;;;;;;;;;4781959;30;20024;-78
2022/09/16 12:00:44;;;;;;;7.97;6.00;;;;;;;;;;4749218;30;20049;-75
2022/09/16 12:03:30;;;;;;;7.47;6.68;;;;;;;;;;4748235;30;20033;-76
2022/09/16 12:06:06;;;;;;;10.80;7.07;;;;;;;;;;4769351;30;20130;-78
2022/09/16 12:08:53;;;;;;;11.23;7.30;;;;;;;;;;4773061;30;20039;-75
2022/09/16 12:20:25;;;;;;;9.85;6.88;;;;;;;;;;4550311;27;20089;-77
2022/09/16 12:23:06;;;;;;;6.70;6.00;;;;;;;;;;4870597;29;20050;-76
2022/09/16 12:25:54;;;;;;;7.68;6.50;;;;;;;;;;4837666;29;20067;-73
2022/09/16 12:29:02;;;;;;;9.05;7.63;;;;;;;;;;4866932;29;20056;-76
2022/09/16 12:31:33;;;;;;;9.85;7.22;;;;;;;;;;4865638;29;20041;-76
2022/09/16 12:34:05;;;;;;;7.93;7.13;;;;;;;;;;4848410;29;20066;-75
2022/09/16 12:36:32;;;;;;;7.82;7.03;;;;;;;;;;4866606;29;20032;-76
2022/09/16 12:38:59;;;;;;;11.40;8.10;;;;;;;;;;4872128;29;20463;-76
2022/09/16 12:41:25;;;;;;;8.95;7.43;;;;;;;;;;4871175;29;20504;-76
2022/09/16 12:43:51;;;;;;;8.52;6.32;;;;;;;;;;4870770;29;20021;-77
2022/09/16 12:46:27;;;;;;;6.72;5.95;;;;;;;;;;4872092;29;20036;-77
2022/09/16 12:49:11;;;;;;;8.25;6.28;;;;;;;;;;4872276;29;20034;-76
2022/09/16 12:51:56;;;;;;;8.25;6.53;;;;;;;;;;4870013;29;20064;-77
2022/09/16 12:54:38;;;;;;;9.27;7.22;;;;;;;;;;4870441;29;20026;-75
2022/09/16 12:57:17;;;;;;;7.90;7.10;;;;;;;;;;4867531;29;20492;-76
2022/09/16 12:59:52;;;;;;;6.53;5.93;;;;;;;;;;4848494;29;20052;-75
2022/09/16 13:02:21;;;;;;;8.40;6.10;;;;;;;;;;4868613;29;20032;-76
2022/09/16 13:04:58;;;;;;;7.60;6.70;;;;;;;;;;4869742;29;20033;-76
2022/09/16 13:07:29;;;;;;;8.75;7.05;;;;;;;;;;4864111;29;20473;-75
2022/09/16 13:10:04;;;;;;;8.15;6.82;;;;;;;;;;4855518;29;20090;-76
2022/09/16 13:12:30;;;;;;;7.63;6.50;;;;;;;;;;4851951;29;20046;-75
2022/09/16 13:14:58;;;;;;;9.10;8.02;;;;;;;;;;4853713;29;20064;-74
2022/09/16 13:32:26;;;;;;;9.48;6.00;;;;;;;;;;5021470;23;20057;-79
2022/09/16 13:40:42;;;;;;;8.50;6.60;;;;;;;;;;5022711;23;20098;-76
2022/09/16 13:43:31;;;;;;;12.25;6.57;;;;;;;;;;4802501;29;20107;-77
2022/09/16 13:46:01;;;;;;;9.68;6.80;;;;;;;;;;4803958;29;20032;-78
2022/09/16 13:51:54;;;;;;;8.93;7.25;;;;;;;;;;5338970;23;20080;-78
2022/09/16 13:57:13;;;;;;;9.40;7.47;;;;;;;;;;5432677;23;20159;-77
2022/09/16 13:59:58;;;;;;;15.10;12.13;;;;;;;;;;4864139;29;20037;-78
2022/09/16 14:02:44;;;;;;;12.77;7.65;;;;;;;;;;4868183;29;20038;-78
2022/09/16 14:05:35;;;;;;;14.30;8.32;;;;;;;;;;4878907;29;20045;-78
2022/09/16 14:11:36;;;;;;;12.27;8.87;;;;;;;;;;4884859;29;20052;-77
2022/09/16 14:17:02;;;;;;;12.90;9.10;;;;;;;;;;5754002;23;20792;-76
2022/09/16 14:19:51;;;;;;;14.80;9.75;;;;;;;;;;4875213;29;20484;-76
2022/09/16 14:22:25;;;;;;;13.65;9.68;;;;;;;;;;4862558;29;20038;-77
2022/09/16 14:24:52;;;;;;;14.98;10.13;;;;;;;;;;4869382;29;20034;-77
2022/09/16 14:27:43;;;;;;;14.90;9.65;;;;;;;;;;4866532;29;20006;-77
2022/09/16 14:30:16;;;;;;;12.98;9.85;;;;;;;;;;4869138;29;20045;-79
2022/09/16 14:33:09;;;;;;;14.73;9.98;;;;;;;;;;4861092;29;20045;-77
2022/09/16 14:38:15;;;;;;;14.85;10.70;;;;;;;;;;5173672;23;20090;-74
2022/09/16 14:40:46;;;;;;;16.35;11.55;;;;;;;;;;4887281;29;20029;-73
2022/09/16 14:43:15;;;;;;;16.25;11.65;;;;;;;;;;4884919;29;20084;-74
2022/09/16 14:45:45;;;;;;;17.35;11.80;;;;;;;;;;4880008;29;20022;-75
2022/09/16 14:48:19;;;;;;;18.88;12.27;;;;;;;;;;4877855;29;20595;-75
2022/09/16 14:50:50;;;;;;;14.10;11.82;;;;;;;;;;4884828;29;20029;-75
2022/09/16 14:53:38;;;;;;;17.33;11.60;;;;;;;;;;5042089;23;20515;-80
2022/09/16 14:59:47;;;;;;;13.77;10.77;;;;;;;;;;4898774;29;20064;-82
2022/09/16 15:02:36;;;;;;;14.70;8.88;;;;;;;;;;4796628;29;20070;-81
2022/09/16 15:05:19;;;;;;;17.08;10.20;;;;;;;;;;4815472;29;20118;-76
2022/09/16 15:07:45;;;;;;;14.38;11.68;;;;;;;;;;4814597;29;20549;-76
2022/09/16 15:10:34;;;;;;;16.67;12.43;;;;;;;;;;4816486;29;20043;-79
2022/09/16 15:13:09;;;;;;;15.48;11.27;;;;;;;;;;4790158;30;20059;-77
2022/09/16 15:15:39;;;;;;;20.40;11.50;;;;;;;;;;4798539;29;20039;-78
2022/09/16 15:18:14;;;;;;;14.10;9.48;;;;;;;;;;4797501;29;20507;-76
2022/09/16 15:20:41;;;;;;;12.25;10.15;;;;;;;;;;4802472;29;20034;-76
2022/09/16 15:48:31;;;;;;;25.33;14.40;;;;;;;;;;5567716;23;20047;-81
2022/09/16 15:51:35;;;;;;;22.08;13.95;;;;;;;;;;4893982;29;20018;-79
2022/09/16 15:54:30;;;;;;;18.83;13.77;;;;;;;;;;4843567;29;20046;-80
2022/09/16 15:57:10;;;;;;;20.85;14.02;;;;;;;;;;4858449;29;20420;-80
2022/09/16 16:00:07;;;;;;;20.08;14.27;;;;;;;;;;4844790;29;20170;-76
2022/09/16 16:02:45;;;;;;;25.55;15.98;;;;;;;;;;4841709;29;20034;-77
2022/09/16 16:05:13;;;;;;;19.63;13.73;;;;;;;;;;4842796;29;20038;-76
2022/09/16 16:07:53;;;;;;;21.38;15.27;;;;;;;;;;4836645;29;20046;-77
2022/09/16 16:10:19;;;;;;;20.60;13.85;;;;;;;;;;4829893;29;20038;-77
2022/09/16 16:12:48;;;;;;;20.08;13.68;;;;;;;;;;4832621;29;20034;-75
2022/09/16 16:15:20;;;;;;;19.77;12.60;;;;;;;;;;4833103;29;20038;-76
2022/09/16 16:17:49;;;;;;;20.55;15.05;;;;;;;;;;4837245;29;20046;-76
2022/09/16 16:20:16;;;;;;;26.13;15.98;;;;;;;;;;4831395;29;20042;-76
2022/09/16 16:22:44;;;;;;;19.90;13.88;;;;;;;;;;4823666;29;20034;-75
2022/09/16 16:25:11;;;;;;;19.98;13.77;;;;;;;;;;4822686;29;20058;-76
2022/09/16 16:27:37;;;;;;;19.92;14.43;;;;;;;;;;4834314;29;20056;-76
2022/09/16 16:30:06;;;;;;;20.88;14.20;;;;;;;;;;4835573;29;20072;-76
2022/09/16 16:32:43;;;;;;;29.55;21.85;;;;;;;;;;4828828;29;20615;-78
2022/09/16 16:35:09;;;;;;;17.88;13.82;;;;;;;;;;4836620;29;20563;-77
2022/09/16 16:37:35;;;;;;;25.75;14.30;;;;;;;;;;4841621;29;20493;-76
2022/09/16 16:40:05;;;;;;;21.15;14.38;;;;;;;;;;4831413;29;20397;-76
2022/09/16 16:42:31;;;;;;;18.83;12.98;;;;;;;;;;4837031;29;20041;-76
2022/09/16 16:44:59;;;;;;;21.02;13.02;;;;;;;;;;4839609;29;20030;-76
2022/09/16 16:47:31;;;;;;;21.35;14.25;;;;;;;;;;4841553;29;20066;-76
2022/09/16 16:49:58;;;;;;;18.58;14.02;;;;;;;;;;4841231;29;20103;-79
2022/09/16 16:52:27;;;;;;;22.30;16.25;;;;;;;;;;4841628;29;20022;-77
2022/09/16 16:54:53;;;;;;;20.90;15.70;;;;;;;;;;4838935;29;20041;-76
2022/09/16 16:57:19;;;;;;;20.80;15.30;;;;;;;;;;4849696;29;20049;-76
2022/09/16 16:59:45;;;;;;;23.52;14.80;;;;;;;;;;4870144;29;20064;-76
2022/09/16 17:02:13;;;;;;;16.35;13.25;;;;;;;;;;4880058;29;20033;-76
2022/09/16 17:04:39;;;;;;;19.30;14.20;;;;;;;;;;4875934;29;20048;-76
2022/09/16 17:07:07;;;;;;;21.08;15.30;;;;;;;;;;4861721;29;20026;-76
2022/09/16 17:09:38;;;;;;;23.88;15.45;;;;;;;;;;4877158;29;20033;-76
2022/09/16 17:12:08;;;;;;;23.60;16.13;;;;;;;;;;4876899;29;20017;-77
2022/09/16 17:14:34;;;;;;;28.92;16.60;;;;;;;;;;4863759;29;20184;-76
2022/09/16 17:17:01;;;;;;;27.90;18.85;;;;;;;;;;4870742;29;20025;-76
2022/09/16 17:19:28;;;;;;;29.20;19.02;;;;;;;;;;4867853;29;20030;-76
2022/09/16 17:21:56;;;;;;;27.17;19.02;;;;;;;;;;4864602;29;20507;-75
2022/09/16 17:24:24;;;;;;;32.35;20.95;;;;;;;;;;4872760;29;20030;-76
2022/09/16 17:26:51;;;;;;;23.80;18.33;;;;;;;;;;4871607;29;20085;-75
2022/09/16 17:29:17;;;;;;;28.70;18.90;;;;;;;;;;4872469;29;20561;-78
2022/09/16 17:31:43;;;;;;;23.67;15.98;;;;;;;;;;4866231;29;20018;-76
2022/09/16 17:34:11;;;;;;;20.85;13.60;;;;;;;;;;4876209;29;20109;-77
2022/09/16 17:36:42;;;;;;;22.33;14.00;;;;;;;;;;4876951;29;20491;-76
2022/09/16 17:39:13;;;;;;;19.83;13.88;;;;;;;;;;4878214;29;20061;-77
2022/09/16 17:41:42;;;;;;;18.55;13.80;;;;;;;;;;4874883;29;20037;-76
2022/09/16 17:44:08;;;;;;;18.98;14.07;;;;;;;;;;4876928;29;20033;-76
2022/09/16 17:46:42;;;;;;;20.42;13.55;;;;;;;;;;4877076;29;20027;-78
2022/09/16 17:49:13;;;;;;;16.02;12.57;;;;;;;;;;4867878;29;20065;-76
2022/09/16 17:51:39;;;;;;;17.27;12.98;;;;;;;;;;4865222;29;20029;-76
2022/09/16 17:54:21;;;;;;;16.20;12.63;;;;;;;;;;4876805;29;20038;-76
2022/09/16 17:56:47;;;;;;;16.10;12.52;;;;;;;;;;4877265;29;20029;-76
2022/09/16 17:59:18;;;;;;;14.50;11.20;;;;;;;;;;4872929;29;20101;-76
2022/09/16 18:01:45;;;;;;;15.45;10.50;;;;;;;;;;4875136;29;20081;-76
2022/09/16 18:04:12;;;;;;;14.57;11.02;;;;;;;;;;4873532;29;20213;-76
2022/09/16 18:06:43;;;;;;;14.85;11.50;;;;;;;;;;4877697;29;20089;-76
2022/09/16 18:09:09;;;;;;;15.65;11.40;;;;;;;;;;4877057;29;20038;-76
2022/09/16 18:11:39;;;;;;;15.68;12.25;;;;;;;;;;4876248;29;20022;-76
2022/09/16 18:14:06;;;;;;;17.65;12.95;;;;;;;;;;4877978;29;20030;-76
2022/09/16 18:16:33;;;;;;;14.27;11.00;;;;;;;;;;4876640;29;20029;-76
2022/09/16 18:19:00;;;;;;;15.98;11.27;;;;;;;;;;4874095;29;20038;-75
2022/09/16 18:21:28;;;;;;;16.90;11.75;;;;;;;;;;4874397;29;20029;-76
2022/09/16 18:23:56;;;;;;;18.60;11.68;;;;;;;;;;4874855;29;20493;-75
2022/09/16 18:26:22;;;;;;;13.60;10.60;;;;;;;;;;4876411;29;20040;-79
2022/09/16 18:28:53;;;;;;;16.58;10.30;;;;;;;;;;4878003;29;20025;-77
2022/09/16 18:31:22;;;;;;;14.27;10.13;;;;;;;;;;4873412;29;20178;-76
2022/09/16 18:33:52;;;;;;;20.20;11.38;;;;;;;;;;4875632;29;20030;-76
2022/09/16 18:36:24;;;;;;;13.43;9.50;;;;;;;;;;4875696;29;20061;-77
2022/09/16 18:38:51;;;;;;;12.20;9.65;;;;;;;;;;4874135;29;20069;-76
2022/09/16 18:41:20;;;;;;;10.73;9.50;;;;;;;;;;4876221;29;20026;-77